createdAt,value
2017-06-24T00:01:38.885Z,99.90
2017-06-24T00:04:05.834Z,99.90
2017-06-24T00:06:32.764Z,99.90
2017-06-24T00:08:59.736Z,99.90
2017-06-24T00:11:26.772Z,99.90
2017-06-24T00:13:53.728Z,99.90
2017-06-24T00:16:20.675Z,99.90
2017-06-24T00:18:47.655Z,99.90
2017-06-24T00:21:15.428Z,99.90
2017-06-24T00:23:43.216Z,99.90
2017-06-24T00:26:10.196Z,99.90
2017-06-24T00:28:37.156Z,99.90
2017-06-24T00:31:04.136Z,99.90
2017-06-24T00:33:31.102Z,99.90
2017-06-24T00:35:58.077Z,99.90
2017-06-24T00:38:25.027Z,99.90
2017-06-24T00:40:51.966Z,99.90
2017-06-24T00:43:18.943Z,99.90
2017-06-24T00:45:45.892Z,99.90
2017-06-24T00:48:13.631Z,99.90
2017-06-24T00:50:40.564Z,99.90
2017-06-24T00:53:07.540Z,99.90
2017-06-24T00:55:34.488Z,99.90
2017-06-24T00:58:02.213Z,99.90
2017-06-24T01:00:29.212Z,99.90
2017-06-24T01:02:56.167Z,99.90
2017-06-24T01:05:23.161Z,99.90
2017-06-24T01:07:50.114Z,99.90
2017-06-24T01:10:17.116Z,99.90
2017-06-24T01:12:44.076Z,99.90
2017-06-24T01:15:11.017Z,99.90
2017-06-24T01:17:38.067Z,99.90
2017-06-24T01:20:05.001Z,99.90
2017-06-24T01:22:31.954Z,99.90
2017-06-24T01:24:58.893Z,99.90
2017-06-24T01:27:25.884Z,99.90
2017-06-24T01:29:52.843Z,99.90
2017-06-24T01:32:19.795Z,99.90
2017-06-24T01:34:47.542Z,99.90
2017-06-24T01:37:14.480Z,99.90
2017-06-24T01:39:41.455Z,99.90
2017-06-24T01:42:09.183Z,99.90
2017-06-24T01:44:36.157Z,99.90
2017-06-24T01:47:03.897Z,99.90
2017-06-24T01:49:30.861Z,99.90
2017-06-24T01:51:58.572Z,99.90
2017-06-24T01:54:25.559Z,99.90
2017-06-24T01:56:53.290Z,99.90
2017-06-24T01:59:20.269Z,99.90
2017-06-24T02:01:47.222Z,99.90
2017-06-24T02:04:14.971Z,99.90
2017-06-24T02:06:41.915Z,99.90
2017-06-24T02:09:08.899Z,99.90
2017-06-24T02:11:35.843Z,99.90
2017-06-24T02:14:02.836Z,99.90
2017-06-24T02:16:29.772Z,99.90
2017-06-24T02:18:56.742Z,99.90
2017-06-24T02:21:23.703Z,99.90
2017-06-24T02:23:51.068Z,99.90
2017-06-24T02:26:18.055Z,99.90
2017-06-24T02:28:45.003Z,99.90
2017-06-24T02:31:12.013Z,99.90
2017-06-24T02:33:38.971Z,99.90
2017-06-24T02:36:05.951Z,99.90
2017-06-24T02:38:32.911Z,99.90
2017-06-24T02:40:59.912Z,99.90
2017-06-24T02:43:26.891Z,99.90
2017-06-24T02:45:53.872Z,99.90
2017-06-24T02:48:21.606Z,99.90
2017-06-24T02:50:48.573Z,99.90
2017-06-24T02:53:15.532Z,99.90
2017-06-24T02:55:42.511Z,99.90
2017-06-24T02:58:09.469Z,99.90
2017-06-24T03:00:36.464Z,99.90
2017-06-24T03:03:04.199Z,99.90
2017-06-24T03:05:31.161Z,99.90
2017-06-24T03:07:58.911Z,99.90
2017-06-24T03:10:25.879Z,99.90
2017-06-24T03:12:53.632Z,99.90
2017-06-24T03:15:21.368Z,99.90
2017-06-24T03:17:48.337Z,99.90
2017-06-24T03:20:15.276Z,99.90
2017-06-24T03:22:42.237Z,99.90
2017-06-24T03:25:09.946Z,99.90
2017-06-24T03:27:36.939Z,99.90
2017-06-24T03:30:04.664Z,99.90
2017-06-24T03:32:31.628Z,99.90
2017-06-24T03:34:58.656Z,99.90
2017-06-24T03:37:25.615Z,99.90
2017-06-24T03:39:52.596Z,99.90
2017-06-24T03:42:19.555Z,99.90
2017-06-24T03:44:46.544Z,99.90
2017-06-24T03:47:13.503Z,99.90
2017-06-24T03:49:40.495Z,99.90
2017-06-24T03:52:07.456Z,99.90
2017-06-24T03:54:34.402Z,99.90
2017-06-24T03:57:01.361Z,99.90
2017-06-24T03:59:28.322Z,99.90
2017-06-24T04:01:55.293Z,99.90
2017-06-24T04:04:23.013Z,99.90
2017-06-24T04:06:49.993Z,99.90
2017-06-24T04:09:16.953Z,99.90
2017-06-24T04:11:43.933Z,99.90
2017-06-24T04:14:10.936Z,99.90
2017-06-24T04:16:38.668Z,99.90
2017-06-24T04:19:05.649Z,99.90
2017-06-24T04:21:33.376Z,99.90
2017-06-24T04:24:00.351Z,99.90
2017-06-24T04:26:28.075Z,99.90
2017-06-24T04:28:55.071Z,99.90
2017-06-24T04:31:22.031Z,99.90
2017-06-24T04:33:48.990Z,99.90
2017-06-24T04:36:15.943Z,99.90
2017-06-24T04:38:42.937Z,99.90
2017-06-24T04:41:10.663Z,99.90
2017-06-24T04:43:37.616Z,99.90
2017-06-24T04:46:04.604Z,99.90
2017-06-24T04:48:32.323Z,99.90
2017-06-24T04:50:59.299Z,99.90
2017-06-24T04:53:27.015Z,99.90
2017-06-24T04:55:54.017Z,99.90
2017-06-24T04:58:21.735Z,99.90
2017-06-24T05:00:48.686Z,99.90
2017-06-24T05:03:15.673Z,99.90
2017-06-24T05:05:43.390Z,99.90
2017-06-24T05:08:10.743Z,99.90
2017-06-24T05:10:37.710Z,99.90
2017-06-24T05:13:04.658Z,99.90
2017-06-24T05:15:31.637Z,99.90
2017-06-24T05:17:58.592Z,99.90
2017-06-24T05:20:25.564Z,99.90
2017-06-24T05:22:52.509Z,99.90
2017-06-24T05:25:19.468Z,99.90
2017-06-24T05:27:46.477Z,99.90
2017-06-24T05:30:13.454Z,99.90
2017-06-24T05:32:40.467Z,99.90
2017-06-24T05:35:07.446Z,99.90
2017-06-24T05:37:34.427Z,99.90
2017-06-24T05:40:02.175Z,99.90
2017-06-24T05:42:29.151Z,99.90
2017-06-24T05:44:56.124Z,99.90
2017-06-24T05:47:23.057Z,99.90
2017-06-24T05:49:50.032Z,99.90
2017-06-24T05:52:16.984Z,99.90
2017-06-24T05:54:43.988Z,99.90
2017-06-24T05:57:10.949Z,99.90
2017-06-24T05:59:37.911Z,99.90
2017-06-24T06:02:04.896Z,99.90
2017-06-24T06:04:32.620Z,99.90
2017-06-24T06:06:59.613Z,99.90
2017-06-24T06:09:27.335Z,99.90
2017-06-24T06:11:54.317Z,99.90
2017-06-24T06:14:22.040Z,99.90
2017-06-24T06:16:49.133Z,99.90
2017-06-24T06:19:16.847Z,99.90
2017-06-24T06:21:43.803Z,99.90
2017-06-24T06:24:10.788Z,99.90
2017-06-24T06:26:37.747Z,99.90
2017-06-24T06:29:04.728Z,99.90
2017-06-24T06:31:31.668Z,99.90
2017-06-24T06:33:58.652Z,99.90
2017-06-24T06:36:26.377Z,99.90
2017-06-24T06:38:53.336Z,99.90
2017-06-24T06:41:20.293Z,99.90
2017-06-24T06:43:47.237Z,99.90
2017-06-24T06:46:14.205Z,99.90
2017-06-24T06:48:41.152Z,99.90
2017-06-24T06:51:08.108Z,99.90
2017-06-24T06:53:35.088Z,99.90
2017-06-24T06:56:02.048Z,99.90
2017-06-24T06:58:29.009Z,99.90
2017-06-24T07:00:55.986Z,99.90
2017-06-24T07:03:22.985Z,99.90
2017-06-24T07:05:49.951Z,99.90
2017-06-24T07:08:16.897Z,99.90
2017-06-24T07:10:43.876Z,99.90
2017-06-24T07:13:10.852Z,99.90
2017-06-24T07:15:37.851Z,99.90
2017-06-24T07:18:05.583Z,99.90
2017-06-24T07:20:32.572Z,99.90
2017-06-24T07:22:59.509Z,99.90
2017-06-24T07:25:26.469Z,99.90
2017-06-24T07:27:53.460Z,99.90
2017-06-24T07:30:20.412Z,99.90
2017-06-24T07:32:47.417Z,99.90
2017-06-24T07:35:14.372Z,99.90
2017-06-24T07:37:42.180Z,99.90
2017-06-24T07:40:09.152Z,99.90
2017-06-24T07:42:36.107Z,99.90
2017-06-24T07:45:03.093Z,99.90
2017-06-24T07:47:30.064Z,99.90
2017-06-24T07:49:57.808Z,99.90
2017-06-24T07:52:24.764Z,99.90
2017-06-24T07:54:51.739Z,99.90
2017-06-24T07:57:18.721Z,99.90
2017-06-24T07:59:45.728Z,99.90
2017-06-24T08:02:12.683Z,99.90
2017-06-24T08:04:39.680Z,99.90
2017-06-24T08:07:06.672Z,99.90
2017-06-24T08:09:33.827Z,99.90
2017-06-24T08:12:00.770Z,99.90
2017-06-24T08:14:27.737Z,99.90
2017-06-24T08:16:54.695Z,99.90
2017-06-24T08:19:21.696Z,99.90
2017-06-24T08:21:48.646Z,99.90
2017-06-24T08:24:15.604Z,99.90
2017-06-24T08:26:42.573Z,99.90
2017-06-24T08:29:09.508Z,99.90
2017-06-24T08:31:36.472Z,99.90
2017-06-24T08:34:03.427Z,99.90
2017-06-24T08:36:30.427Z,99.90
2017-06-24T08:38:57.607Z,99.90
2017-06-24T08:41:24.564Z,99.90
2017-06-24T08:43:51.520Z,99.90
2017-06-24T08:46:18.503Z,99.90
2017-06-24T08:48:45.465Z,99.90
2017-06-24T08:51:12.447Z,99.90
2017-06-24T08:53:39.390Z,99.90
2017-06-24T08:56:06.363Z,99.90
2017-06-24T08:58:34.095Z,99.90
2017-06-24T09:01:01.053Z,99.90
2017-06-24T09:03:28.031Z,99.90
2017-06-24T09:05:55.108Z,99.90
2017-06-24T09:08:22.082Z,99.90
2017-06-24T09:10:49.036Z,99.90
2017-06-24T09:13:16.003Z,99.90
2017-06-24T09:15:43.752Z,99.90
2017-06-24T09:18:10.719Z,99.90
2017-06-24T09:20:38.425Z,99.90
2017-06-24T09:23:05.385Z,99.90
2017-06-24T09:25:32.330Z,99.90
2017-06-24T09:27:59.274Z,99.90
2017-06-24T09:30:26.257Z,99.90
2017-06-24T09:32:53.991Z,99.90
2017-06-24T09:35:20.957Z,99.90
2017-06-24T09:37:48.673Z,99.90
2017-06-24T09:40:15.751Z,99.90
2017-06-24T09:42:42.753Z,99.90
2017-06-24T09:45:09.708Z,99.90
2017-06-24T09:47:36.669Z,99.90
2017-06-24T09:50:03.666Z,99.90
2017-06-24T09:52:30.628Z,99.90
2017-06-24T09:54:57.591Z,99.90
2017-06-24T09:57:24.590Z,99.90
2017-06-24T09:59:52.318Z,99.90
2017-06-24T10:02:19.267Z,99.90
2017-06-24T10:04:46.248Z,99.90
2017-06-24T10:07:13.212Z,99.90
2017-06-24T10:09:40.196Z,99.90
2017-06-24T10:12:07.162Z,99.90
2017-06-24T10:14:34.999Z,99.90
2017-06-24T10:17:02.457Z,99.90
2017-06-24T10:19:46.359Z,99.90
2017-06-24T10:22:13.331Z,99.90
2017-06-24T10:24:40.311Z,99.90
2017-06-24T10:27:07.283Z,99.90
2017-06-24T10:29:35.049Z,99.90
2017-06-24T10:32:02.131Z,99.90
2017-06-24T10:34:29.119Z,99.90
2017-06-24T10:36:56.075Z,99.90
2017-06-24T10:39:23.831Z,99.90
2017-06-24T10:41:50.783Z,99.90
2017-06-24T10:44:18.555Z,99.90
2017-06-24T10:46:46.324Z,99.90
2017-06-24T10:49:14.032Z,99.90
2017-06-24T10:51:41.272Z,99.90
2017-06-24T10:54:08.201Z,99.90
2017-06-24T10:56:35.152Z,99.90
2017-06-24T10:59:02.143Z,99.90
2017-06-24T11:01:29.104Z,99.90
2017-06-24T11:03:56.105Z,99.90
2017-06-24T11:06:23.063Z,99.90
2017-06-24T11:08:50.048Z,99.90
2017-06-24T11:11:17.775Z,99.90
2017-06-24T11:13:44.759Z,99.90
2017-06-24T11:16:12.504Z,99.90
2017-06-24T11:18:39.470Z,99.90
2017-06-24T11:21:07.221Z,99.90
2017-06-24T11:23:34.933Z,99.90
2017-06-24T11:26:01.904Z,99.90
2017-06-24T11:28:28.881Z,99.90
2017-06-24T11:30:56.642Z,99.90
2017-06-24T11:33:24.374Z,99.90
2017-06-24T11:35:51.322Z,99.90
2017-06-24T11:38:18.546Z,99.90
2017-06-24T11:40:45.508Z,99.90
2017-06-24T11:43:12.508Z,99.90
2017-06-24T11:45:39.497Z,99.90
2017-06-24T11:48:06.476Z,99.90
2017-06-24T11:50:33.436Z,99.90
2017-06-24T11:53:00.391Z,99.90
2017-06-24T11:55:27.372Z,99.90
2017-06-24T11:57:54.341Z,99.90
2017-06-24T12:00:21.324Z,99.90
2017-06-24T12:02:49.226Z,99.90
2017-06-24T12:05:16.293Z,99.90
2017-06-24T12:07:43.237Z,99.90
2017-06-24T12:10:10.173Z,99.90
2017-06-24T12:12:37.599Z,99.90
2017-06-24T12:15:04.565Z,99.90
2017-06-24T12:17:31.532Z,99.90
2017-06-24T12:19:58.464Z,99.90
2017-06-24T12:22:25.421Z,99.90
2017-06-24T12:24:52.759Z,99.90
2017-06-24T12:27:20.110Z,99.90
2017-06-24T12:29:47.059Z,99.90
2017-06-24T12:32:14.016Z,99.90
2017-06-24T12:34:41.001Z,99.90
2017-06-24T12:37:07.959Z,99.90
2017-06-24T12:39:34.970Z,99.90
2017-06-24T12:42:01.932Z,99.90
2017-06-24T12:44:29.651Z,99.90
2017-06-24T12:46:56.989Z,99.90
2017-06-24T12:49:23.920Z,99.90
2017-06-24T12:51:50.877Z,99.90
2017-06-24T12:54:17.818Z,99.90
2017-06-24T12:56:44.783Z,99.90
2017-06-24T12:59:11.716Z,99.90
2017-06-24T13:01:38.672Z,99.90
2017-06-24T13:04:05.628Z,99.90
2017-06-24T13:06:32.603Z,99.90
2017-06-24T13:08:59.562Z,99.90
2017-06-24T13:11:27.304Z,99.90
2017-06-24T13:13:54.264Z,99.90
2017-06-24T13:16:22.038Z,99.90
2017-06-24T13:18:49.000Z,99.90
2017-06-24T13:21:16.000Z,99.90
2017-06-24T13:23:43.004Z,99.90
2017-06-24T13:26:10.057Z,99.90
2017-06-24T13:28:37.034Z,99.90
2017-06-24T13:31:04.001Z,99.90
2017-06-24T13:33:32.036Z,99.90
2017-06-24T13:35:58.980Z,99.90
2017-06-24T13:38:26.000Z,99.90
2017-06-24T13:40:52.964Z,99.90
2017-06-24T13:43:19.916Z,99.90
2017-06-24T13:45:46.912Z,99.90
2017-06-24T13:48:13.868Z,99.90
2017-06-24T13:50:40.929Z,99.90
2017-06-24T13:53:07.888Z,99.90
2017-06-24T13:55:34.848Z,99.90
2017-06-24T13:58:01.828Z,99.90
2017-06-24T14:00:28.780Z,99.90
2017-06-24T14:02:55.767Z,99.90
2017-06-24T14:05:22.719Z,99.90
2017-06-24T14:07:49.675Z,99.90
2017-06-24T14:10:16.647Z,99.90
2017-06-24T14:12:44.367Z,99.90
2017-06-24T14:15:11.339Z,99.90
2017-06-24T14:17:38.295Z,99.90
2017-06-24T14:20:06.036Z,99.90
2017-06-24T14:22:32.980Z,99.90
2017-06-24T14:24:59.957Z,99.90
2017-06-24T14:27:27.676Z,99.90
2017-06-24T14:29:54.635Z,99.90
2017-06-24T14:32:21.618Z,90.90
2017-06-24T14:34:48.588Z,86.30
2017-06-24T14:37:15.573Z,87.80
2017-06-24T14:39:42.517Z,85.10
2017-06-24T14:42:09.462Z,99.90
2017-06-24T14:44:36.427Z,94.30
2017-06-24T14:47:04.170Z,94.60
2017-06-24T14:49:31.133Z,94.60
2017-06-24T14:51:58.833Z,84.10
2017-06-24T14:54:25.785Z,84.20
2017-06-24T14:56:52.740Z,85.30
2017-06-24T14:59:19.693Z,83.90
2017-06-24T15:01:46.694Z,91.00
2017-06-24T15:04:13.665Z,99.90
2017-06-24T15:06:41.043Z,93.60
2017-06-24T15:09:08.041Z,87.90
2017-06-24T15:11:35.000Z,92.40
2017-06-24T15:14:01.960Z,99.90
2017-06-24T15:16:28.934Z,99.90
2017-06-24T15:18:55.881Z,99.90
2017-06-24T15:21:22.842Z,99.90
2017-06-24T15:23:49.787Z,99.90
2017-06-24T15:26:16.789Z,95.60
2017-06-24T15:28:43.739Z,82.90
2017-06-24T15:31:10.692Z,79.60
2017-06-24T15:33:37.683Z,89.80
2017-06-24T15:36:05.452Z,99.90
2017-06-24T15:38:32.484Z,99.90
2017-06-24T15:41:00.243Z,90.90
2017-06-24T15:43:27.964Z,99.90
2017-06-24T15:45:54.960Z,99.90
2017-06-24T15:48:22.760Z,90.10
2017-06-24T15:50:49.735Z,90.00
2017-06-24T15:53:16.673Z,92.90
2017-06-24T15:55:43.649Z,94.10
2017-06-24T15:58:10.584Z,84.70
2017-06-24T16:00:37.535Z,79.50
2017-06-24T16:03:04.519Z,77.30
2017-06-24T16:05:31.589Z,88.50
2017-06-24T16:07:58.535Z,88.50
2017-06-24T16:10:25.540Z,92.70
2017-06-24T16:12:52.512Z,90.10
2017-06-24T16:15:19.658Z,88.40
2017-06-24T16:17:46.821Z,88.40
2017-06-24T16:20:13.869Z,97.10
2017-06-24T16:22:41.321Z,90.00
2017-06-24T16:25:08.299Z,82.10
2017-06-24T16:27:35.251Z,85.10
2017-06-24T16:30:02.214Z,84.60
2017-06-24T16:32:29.926Z,94.20
2017-06-24T16:34:56.923Z,94.30
2017-06-24T16:37:24.631Z,98.80
2017-06-24T16:39:51.751Z,98.70
2017-06-24T16:42:18.718Z,97.70
2017-06-24T16:44:45.656Z,91.30
2017-06-24T16:47:12.647Z,92.40
2017-06-24T16:49:39.603Z,98.20
2017-06-24T16:52:06.693Z,99.90
2017-06-24T16:54:33.633Z,93.20
2017-06-24T16:57:00.581Z,89.30
2017-06-24T16:59:27.559Z,92.10
2017-06-24T17:01:54.537Z,97.40
2017-06-24T17:04:22.124Z,92.10
2017-06-24T17:06:49.059Z,93.60
2017-06-24T17:09:16.825Z,93.40
2017-06-24T17:11:43.812Z,93.40
2017-06-24T17:14:10.807Z,96.80
2017-06-24T17:16:38.605Z,99.90
2017-06-24T17:19:05.628Z,99.90
2017-06-24T17:21:32.642Z,99.90
2017-06-24T17:23:59.626Z,96.50
2017-06-24T17:26:26.603Z,97.20
2017-06-24T17:28:53.566Z,99.90
2017-06-24T17:31:20.560Z,99.90
2017-06-24T17:33:47.536Z,99.00
2017-06-24T17:36:14.555Z,94.50
2017-06-24T17:38:41.539Z,97.20
2017-06-24T17:41:09.570Z,90.50
2017-06-24T17:43:36.532Z,86.80
2017-06-24T17:46:03.489Z,88.50
2017-06-24T17:48:30.529Z,89.10
2017-06-24T17:50:57.515Z,93.50
2017-06-24T17:53:24.499Z,98.30
2017-06-24T17:55:51.443Z,99.90
2017-06-24T17:58:18.429Z,99.90
2017-06-24T18:00:45.373Z,99.90
2017-06-24T18:03:12.332Z,99.90
2017-06-24T18:05:39.304Z,99.90
2017-06-24T18:08:06.241Z,99.90
2017-06-24T18:10:33.242Z,99.90
2017-06-24T18:13:00.212Z,99.90
2017-06-24T18:15:27.211Z,99.90
2017-06-24T18:17:54.176Z,99.90
2017-06-24T18:20:21.156Z,99.90
2017-06-24T18:22:48.202Z,99.90
2017-06-24T18:25:15.191Z,99.90
2017-06-24T18:27:42.196Z,99.90
2017-06-24T18:30:09.150Z,99.90
2017-06-24T18:32:36.127Z,99.90
2017-06-24T18:35:03.103Z,99.90
2017-06-24T18:37:30.063Z,99.90
2017-06-24T18:39:57.048Z,99.90
2017-06-24T18:42:25.718Z,99.90
2017-06-24T18:44:52.696Z,99.90
2017-06-24T18:47:19.656Z,99.90
2017-06-24T18:49:46.774Z,99.90
2017-06-24T18:52:13.747Z,99.90
2017-06-24T18:54:40.712Z,99.90
2017-06-24T18:57:07.702Z,99.90
2017-06-24T18:59:35.441Z,99.90
2017-06-24T19:02:02.463Z,99.90
2017-06-24T19:04:29.431Z,99.90
2017-06-24T19:06:56.433Z,99.90
2017-06-24T19:09:23.452Z,99.90
2017-06-24T19:11:51.175Z,99.90
2017-06-24T19:14:18.170Z,99.90
2017-06-24T19:16:45.930Z,99.90
2017-06-24T19:19:12.901Z,99.90
2017-06-24T19:21:39.913Z,99.90
2017-06-24T19:24:06.874Z,99.90
2017-06-24T19:26:33.825Z,99.90
2017-06-24T19:29:00.851Z,99.90
2017-06-24T19:31:28.577Z,99.90
2017-06-24T19:33:55.566Z,99.90
2017-06-24T19:36:22.537Z,99.90
2017-06-24T19:38:49.510Z,99.90
2017-06-24T19:41:16.540Z,99.90
2017-06-24T19:43:43.563Z,99.90
2017-06-24T19:46:10.534Z,99.90
2017-06-24T19:48:37.482Z,99.90
2017-06-24T19:51:04.511Z,99.90
2017-06-24T19:53:31.480Z,99.90
2017-06-24T19:55:58.425Z,99.90
2017-06-24T19:58:25.380Z,99.90
2017-06-24T20:00:52.338Z,99.90
2017-06-24T20:03:19.348Z,99.90
2017-06-24T20:05:46.314Z,99.90
2017-06-24T20:08:13.293Z,99.90
2017-06-24T20:10:41.045Z,99.90
2017-06-24T20:13:08.016Z,99.90
2017-06-24T20:15:35.095Z,99.90
2017-06-24T20:18:02.060Z,99.90
2017-06-24T20:20:29.050Z,99.90
2017-06-24T20:22:56.761Z,99.90
2017-06-24T20:25:23.728Z,99.90
2017-06-24T20:27:50.725Z,99.90
2017-06-24T20:30:17.684Z,99.90
2017-06-24T20:32:44.673Z,99.90
2017-06-24T20:35:11.646Z,99.90
2017-06-24T20:37:38.631Z,99.90
2017-06-24T20:40:05.588Z,99.90
2017-06-24T20:42:32.583Z,99.90
2017-06-24T20:44:59.539Z,99.90
2017-06-24T20:47:26.503Z,99.90
2017-06-24T20:49:53.487Z,99.90
2017-06-24T20:52:20.477Z,99.90
2017-06-24T20:54:47.425Z,99.90
2017-06-24T20:57:14.374Z,99.90
2017-06-24T20:59:41.343Z,99.90
2017-06-24T21:02:08.447Z,99.90
2017-06-24T21:04:35.451Z,99.90
2017-06-24T21:07:02.431Z,99.90
2017-06-24T21:09:30.156Z,99.90
2017-06-24T21:11:57.097Z,99.90
2017-06-24T21:14:24.092Z,99.90
2017-06-24T21:16:51.052Z,99.90
2017-06-24T21:19:17.997Z,99.90
2017-06-24T21:21:44.996Z,99.90
2017-06-24T21:24:11.959Z,99.90
2017-06-24T21:26:39.718Z,99.90
2017-06-24T21:29:07.437Z,99.90
2017-06-24T21:31:34.402Z,99.90
2017-06-24T21:34:01.528Z,99.90
2017-06-24T21:36:30.699Z,99.90
2017-06-24T21:38:57.743Z,99.90
2017-06-24T21:41:24.709Z,99.90
2017-06-24T21:43:51.695Z,99.90
2017-06-24T21:46:18.696Z,99.90
2017-06-24T21:48:45.676Z,99.90
2017-06-24T21:51:13.207Z,99.90
2017-06-24T21:53:40.188Z,99.90
2017-06-24T21:56:07.165Z,99.90
2017-06-24T21:58:34.888Z,99.90
2017-06-24T22:01:01.890Z,99.90
2017-06-24T22:03:28.868Z,99.90
2017-06-24T22:05:55.860Z,99.90
2017-06-24T22:08:22.816Z,99.90
2017-06-24T22:10:49.821Z,99.90
2017-06-24T22:13:16.781Z,99.90
2017-06-24T22:15:43.761Z,99.90
2017-06-24T22:18:10.786Z,99.90
2017-06-24T22:20:38.498Z,99.90
2017-06-24T22:23:05.458Z,99.90
2017-06-24T22:25:32.461Z,99.90
2017-06-24T22:27:59.439Z,99.90
2017-06-24T22:30:26.417Z,99.90
2017-06-24T22:32:53.371Z,99.90
2017-06-24T22:35:20.331Z,99.90
2017-06-24T22:37:47.828Z,99.90
2017-06-24T22:40:14.808Z,99.90
2017-06-24T22:42:41.765Z,99.90
2017-06-24T22:45:09.508Z,99.90
2017-06-24T22:47:36.466Z,99.90
2017-06-24T22:50:04.215Z,99.90
2017-06-24T22:52:31.166Z,99.90
2017-06-24T22:55:07.657Z,99.90
2017-06-24T22:57:34.614Z,99.90
2017-06-24T23:00:01.594Z,99.90
2017-06-24T23:02:28.580Z,99.90
2017-06-24T23:04:56.289Z,99.90
2017-06-24T23:07:23.324Z,99.90
2017-06-24T23:09:50.303Z,99.90
2017-06-24T23:12:17.265Z,99.90
2017-06-24T23:14:44.234Z,99.90
2017-06-24T23:17:11.957Z,99.90
2017-06-24T23:19:38.953Z,99.90
2017-06-24T23:22:05.911Z,99.90
2017-06-24T23:24:32.880Z,99.90
2017-06-24T23:26:59.871Z,99.90
2017-06-24T23:29:26.864Z,99.90
2017-06-24T23:31:53.808Z,99.90
2017-06-24T23:34:20.808Z,99.90
2017-06-24T23:36:48.521Z,99.90
2017-06-24T23:39:15.476Z,99.90
2017-06-24T23:41:42.493Z,99.90
2017-06-24T23:44:09.448Z,99.90
2017-06-24T23:46:36.397Z,99.90
2017-06-24T23:49:03.400Z,99.90
2017-06-24T23:51:30.395Z,99.90
2017-06-24T23:53:57.375Z,99.90
2017-06-24T23:56:24.340Z,99.90
2017-06-24T23:58:52.089Z,99.90
